createdAt,value
2023-05-22T00:02:00.313Z,100800.56
2023-05-22T00:04:31.468Z,100830.31
2023-05-22T00:07:02.445Z,100842.31
2023-05-22T00:09:33.801Z,100833.31
2023-05-22T00:12:04.824Z,100837.13
2023-05-22T00:14:36.353Z,100842.94
2023-05-22T00:17:07.995Z,100834.28
2023-05-22T00:19:41.748Z,100836.63
2023-05-22T00:22:14.351Z,100826.16
2023-05-22T00:24:45.631Z,100825.78
2023-05-22T00:27:16.064Z,100826.63
2023-05-22T00:29:49.645Z,100834.59
2023-05-22T00:32:20.342Z,100854.00
2023-05-22T00:34:51.961Z,100854.63
2023-05-22T00:37:22.423Z,100852.47
2023-05-22T00:39:54.620Z,100841.34
2023-05-22T00:42:26.083Z,100836.31
2023-05-22T00:44:58.339Z,100858.41
2023-05-22T00:47:29.921Z,100868.59
2023-05-22T00:50:01.696Z,100887.13
2023-05-22T00:52:32.859Z,100889.47
2023-05-22T00:55:05.293Z,100907.50
2023-05-22T00:57:36.978Z,100887.34
2023-05-22T01:00:12.716Z,100886.56
2023-05-22T01:02:44.540Z,100871.19
2023-05-22T01:05:19.708Z,100888.50
2023-05-22T01:07:51.024Z,100922.72
2023-05-22T01:10:22.227Z,100909.81
2023-05-22T01:13:11.483Z,100902.72
2023-05-22T01:15:55.301Z,100901.06
2023-05-22T01:19:04.661Z,100882.00
2023-05-22T01:21:38.721Z,100897.31
2023-05-22T01:24:53.274Z,100918.94
2023-05-22T01:28:02.503Z,100919.31
2023-05-22T01:31:03.516Z,100916.69
2023-05-22T01:33:41.896Z,100918.28
2023-05-22T01:36:13.992Z,100927.75
2023-05-22T01:38:45.506Z,100920.53
2023-05-22T01:41:15.777Z,100915.00
2023-05-22T01:43:47.646Z,100909.88
2023-05-22T01:46:18.044Z,100918.19
2023-05-22T01:48:48.637Z,100893.19
2023-05-22T01:51:40.059Z,100899.06
2023-05-22T01:54:48.228Z,100899.53
2023-05-22T01:57:28.963Z,100922.25
2023-05-22T02:00:10.942Z,100890.38
2023-05-22T02:03:00.121Z,100861.84
2023-05-22T02:05:34.630Z,100864.00
2023-05-22T02:08:05.945Z,100841.72
2023-05-22T02:10:38.226Z,100841.13
2023-05-22T02:13:12.903Z,100825.19
2023-05-22T02:15:46.880Z,100805.22
2023-05-22T02:18:17.567Z,100813.31
2023-05-22T02:20:48.349Z,100789.09
2023-05-22T02:23:18.550Z,100785.72
2023-05-22T02:25:48.964Z,100821.38
2023-05-22T02:28:19.129Z,100840.25
2023-05-22T02:30:49.756Z,100853.44
2023-05-22T02:33:19.887Z,100860.13
2023-05-22T02:35:52.451Z,100878.00
2023-05-22T02:38:22.389Z,100904.56
2023-05-22T02:40:52.849Z,100923.41
2023-05-22T02:43:23.787Z,100942.19
2023-05-22T02:45:54.571Z,100952.31
2023-05-22T02:48:24.591Z,100981.59
2023-05-22T02:50:54.647Z,100977.25
2023-05-22T02:53:25.013Z,100977.88
2023-05-22T02:55:55.682Z,100950.44
2023-05-22T02:58:26.890Z,100938.69
2023-05-22T03:00:57.287Z,100927.06
2023-05-22T03:03:27.840Z,100917.72
2023-05-22T03:05:59.540Z,100916.81
2023-05-22T03:08:30.197Z,100962.22
2023-05-22T03:11:01.983Z,100980.59
2023-05-22T03:13:32.336Z,100983.94
2023-05-22T03:16:02.505Z,100978.63
2023-05-22T03:18:33.308Z,100994.78
2023-05-22T03:21:03.270Z,100968.00
2023-05-22T03:23:33.875Z,100968.06
2023-05-22T03:26:03.913Z,100971.34
2023-05-22T03:28:37.509Z,100961.22
2023-05-22T03:31:10.420Z,100932.28
2023-05-22T03:33:57.632Z,100939.97
2023-05-22T03:36:28.267Z,100956.31
2023-05-22T03:38:59.369Z,100951.53
2023-05-22T03:41:29.870Z,100955.00
2023-05-22T03:44:00.414Z,100962.81
2023-05-22T03:46:30.584Z,100959.00
2023-05-22T03:49:01.577Z,100964.38
2023-05-22T03:51:32.616Z,100968.25
2023-05-22T03:54:03.276Z,100981.78
2023-05-22T03:56:33.350Z,100965.59
2023-05-22T03:59:05.257Z,100960.94
2023-05-22T04:01:35.786Z,100957.28
2023-05-22T04:04:06.980Z,100942.34
2023-05-22T04:06:44.211Z,100907.19
2023-05-22T04:09:16.413Z,100868.13
2023-05-22T04:11:47.569Z,100857.25
2023-05-22T04:14:18.787Z,100840.25
2023-05-22T04:16:50.435Z,100844.16
2023-05-22T04:19:21.217Z,100846.88
2023-05-22T04:21:51.207Z,100859.47
2023-05-22T04:24:22.119Z,100857.13
2023-05-22T04:26:52.040Z,100862.19
2023-05-22T04:29:23.926Z,100847.22
2023-05-22T04:31:55.553Z,100833.38
2023-05-22T04:34:27.489Z,100833.72
2023-05-22T04:36:57.558Z,100833.56
2023-05-22T04:39:27.965Z,100834.72
2023-05-22T04:41:59.468Z,100832.16
2023-05-22T04:44:31.541Z,100825.25
2023-05-22T04:47:03.241Z,100817.22
2023-05-22T04:49:35.012Z,100817.88
2023-05-22T04:52:05.879Z,100815.63
2023-05-22T04:54:37.794Z,100806.66
2023-05-22T04:57:08.612Z,100797.50
2023-05-22T04:59:42.626Z,100805.16
2023-05-22T05:02:12.778Z,100804.47
2023-05-22T05:04:44.746Z,100802.34
2023-05-22T05:07:18.724Z,100804.84
2023-05-22T05:09:49.303Z,100807.94
2023-05-22T05:12:19.343Z,100801.22
2023-05-22T05:14:49.905Z,100792.59
2023-05-22T05:17:19.841Z,100792.66
2023-05-22T05:19:50.221Z,100795.31
2023-05-22T05:22:20.532Z,100784.34
2023-05-22T05:24:51.026Z,100786.28
2023-05-22T05:27:21.214Z,100789.22
2023-05-22T05:29:51.956Z,100786.44
2023-05-22T05:32:29.008Z,100794.47
2023-05-22T05:35:18.338Z,100797.25
2023-05-22T05:37:52.843Z,100806.78
2023-05-22T05:40:23.456Z,100814.72
2023-05-22T05:42:54.728Z,100817.78
2023-05-22T05:45:28.071Z,100829.34
2023-05-22T05:47:59.050Z,100833.22
2023-05-22T05:50:29.727Z,100850.59
2023-05-22T05:52:59.805Z,100856.19
2023-05-22T05:55:31.479Z,100862.50
2023-05-22T05:58:02.746Z,100878.19
2023-05-22T06:00:43.514Z,100882.94
2023-05-22T06:03:13.613Z,100885.53
2023-05-22T06:06:00.667Z,100890.06
2023-05-22T06:08:56.275Z,100906.13
2023-05-22T06:11:33.674Z,100906.56
2023-05-22T06:14:05.816Z,100907.63
2023-05-22T06:16:36.436Z,100901.03
2023-05-22T06:19:06.620Z,100894.56
2023-05-22T06:21:37.049Z,100895.00
2023-05-22T06:24:07.486Z,100900.38
2023-05-22T06:26:38.009Z,100910.41
2023-05-22T06:29:07.928Z,100914.78
2023-05-22T06:31:40.379Z,100905.09
2023-05-22T06:34:11.277Z,100911.06
2023-05-22T06:36:41.950Z,100906.47
2023-05-22T06:39:12.216Z,100900.44
2023-05-22T06:42:10.125Z,100906.03
2023-05-22T06:45:12.657Z,100889.66
2023-05-22T06:47:56.108Z,100878.91
2023-05-22T06:50:27.164Z,100871.66
2023-05-22T06:52:58.831Z,100882.81
2023-05-22T06:55:29.095Z,100863.28
2023-05-22T06:58:10.458Z,100865.28
2023-05-22T07:00:40.787Z,100859.41
2023-05-22T07:03:22.660Z,100856.50
2023-05-22T07:06:13.336Z,100851.72
2023-05-22T07:08:43.750Z,100835.28
2023-05-22T07:11:13.958Z,100829.91
2023-05-22T07:13:44.336Z,100826.25
2023-05-22T07:16:16.171Z,100820.66
2023-05-22T07:18:47.624Z,100822.53
2023-05-22T07:21:17.720Z,100820.09
2023-05-22T07:23:48.226Z,100811.25
2023-05-22T07:26:18.301Z,100805.03
2023-05-22T07:28:55.965Z,100792.38
2023-05-22T07:31:25.996Z,100824.59
2023-05-22T07:33:58.107Z,100832.38
2023-05-22T07:36:29.676Z,100834.25
2023-05-22T07:39:00.249Z,100833.72
2023-05-22T07:41:30.345Z,100826.25
2023-05-22T07:44:01.018Z,100827.69
2023-05-22T07:46:36.605Z,100847.34
2023-05-22T07:49:13.835Z,100846.06
2023-05-22T07:51:44.862Z,100833.00
2023-05-22T07:54:15.927Z,100838.94
2023-05-22T07:56:48.892Z,100842.13
2023-05-22T07:59:22.696Z,100855.66
2023-05-22T08:01:54.196Z,100863.16
2023-05-22T08:04:24.863Z,100870.22
2023-05-22T08:06:54.885Z,100886.31
2023-05-22T08:09:25.625Z,100900.38
2023-05-22T08:11:55.606Z,100888.75
2023-05-22T08:14:25.992Z,100889.91
2023-05-22T08:16:56.052Z,100892.63
2023-05-22T08:19:27.064Z,100886.09
2023-05-22T08:21:59.229Z,100897.06
2023-05-22T08:24:30.940Z,100912.97
2023-05-22T08:27:01.748Z,100917.28
2023-05-22T08:29:32.208Z,100925.53
2023-05-22T08:32:02.278Z,100911.53
2023-05-22T08:34:33.650Z,100903.91
2023-05-22T08:37:03.674Z,100888.91
2023-05-22T08:39:34.368Z,100875.81
2023-05-22T08:42:04.498Z,100899.06
2023-05-22T08:44:34.973Z,100913.13
2023-05-22T08:47:15.185Z,100906.22
2023-05-22T08:49:46.586Z,100909.38
2023-05-22T08:52:39.940Z,100897.00
2023-05-22T08:55:10.891Z,100892.09
2023-05-22T08:57:41.587Z,100886.66
2023-05-22T09:00:12.554Z,100885.84
2023-05-22T09:02:43.627Z,100889.50
2023-05-22T09:05:14.548Z,100892.94
2023-05-22T09:07:45.073Z,100891.66
2023-05-22T09:10:15.583Z,100889.31
2023-05-22T09:13:10.325Z,100867.69
2023-05-22T09:15:40.763Z,100864.13
2023-05-22T09:18:10.708Z,100870.59
2023-05-22T09:20:41.470Z,100866.56
2023-05-22T09:23:23.661Z,100862.81
2023-05-22T09:25:59.290Z,100863.59
2023-05-22T09:28:34.752Z,100878.56
2023-05-22T09:31:07.342Z,100882.19
2023-05-22T09:33:41.219Z,100887.75
2023-05-22T09:36:12.127Z,100894.78
2023-05-22T09:38:42.711Z,100904.16
2023-05-22T09:41:13.113Z,100910.69
2023-05-22T09:43:52.396Z,100905.69
2023-05-22T09:46:23.164Z,100911.88
2023-05-22T09:48:56.411Z,100914.63
2023-05-22T09:51:28.579Z,100920.41
2023-05-22T09:54:08.930Z,100930.78
2023-05-22T09:56:41.935Z,100924.69
2023-05-22T09:59:14.929Z,100927.38
2023-05-22T10:01:46.908Z,100935.28
2023-05-22T10:04:19.868Z,100944.94
2023-05-22T10:06:54.320Z,100969.66
2023-05-22T10:09:27.767Z,100994.09
2023-05-22T10:12:05.383Z,100993.34
2023-05-22T10:14:37.361Z,100993.88
2023-05-22T10:17:11.302Z,100987.41
2023-05-22T10:19:43.911Z,100975.81
2023-05-22T10:22:21.939Z,100985.06
2023-05-22T10:24:53.297Z,100978.50
2023-05-22T10:27:23.697Z,100972.78
2023-05-22T10:30:05.035Z,100975.13
2023-05-22T10:32:56.012Z,100968.59
2023-05-22T10:35:53.995Z,100980.97
2023-05-22T10:38:42.524Z,100986.59
2023-05-22T10:41:12.720Z,100988.94
2023-05-22T10:43:47.509Z,100980.66
2023-05-22T10:46:17.730Z,100969.78
2023-05-22T10:48:50.495Z,100989.47
2023-05-22T10:51:22.638Z,101005.44
2023-05-22T10:54:11.246Z,101016.41
2023-05-22T10:56:41.699Z,101014.16
2023-05-22T10:59:12.084Z,100997.22
2023-05-22T11:01:42.146Z,100997.22
2023-05-22T11:04:20.232Z,101000.75
2023-05-22T11:07:06.023Z,100985.59
2023-05-22T11:09:45.263Z,100971.59
2023-05-22T11:12:23.604Z,100982.16
2023-05-22T11:15:07.598Z,101008.72
2023-05-22T11:17:47.774Z,101018.06
2023-05-22T11:20:22.657Z,101015.28
2023-05-22T11:23:09.899Z,101013.69
2023-05-22T11:25:42.588Z,101014.03
2023-05-22T11:28:13.437Z,101018.66
2023-05-22T11:30:44.849Z,101006.28
2023-05-22T11:33:16.100Z,101013.84
2023-05-22T11:35:52.839Z,101026.28
2023-05-22T11:38:23.707Z,101021.47
2023-05-22T11:40:54.414Z,101029.72
2023-05-22T11:43:34.269Z,101024.44
2023-05-22T11:46:09.241Z,101027.31
2023-05-22T11:48:43.164Z,101026.06
2023-05-22T11:51:13.942Z,101030.44
2023-05-22T11:53:43.897Z,101039.81
2023-05-22T11:56:14.276Z,101034.22
2023-05-22T11:58:44.197Z,101035.34
2023-05-22T12:01:14.081Z,101028.28
2023-05-22T12:03:44.676Z,101024.91
2023-05-22T12:06:17.773Z,101032.25
2023-05-22T12:08:48.389Z,101040.44
2023-05-22T12:11:18.803Z,101039.53
2023-05-22T12:13:53.189Z,101035.50
2023-05-22T12:16:23.964Z,101036.72
2023-05-22T12:18:55.603Z,101023.84
2023-05-22T12:21:25.600Z,101027.25
2023-05-22T12:23:57.028Z,101022.53
2023-05-22T12:26:27.002Z,101021.66
2023-05-22T12:28:57.454Z,101026.94
2023-05-22T12:31:27.823Z,101023.06
2023-05-22T12:33:58.974Z,101027.47
2023-05-22T12:36:41.239Z,101039.22
2023-05-22T12:39:13.095Z,101042.59
2023-05-22T12:41:43.136Z,101043.09
2023-05-22T12:44:14.124Z,101039.88
2023-05-22T12:46:44.413Z,101051.19
2023-05-22T12:49:14.857Z,101050.28
2023-05-22T12:51:45.474Z,101053.09
2023-05-22T12:54:16.516Z,101052.28
2023-05-22T12:56:46.597Z,101050.00
2023-05-22T12:59:18.004Z,101058.44
2023-05-22T13:01:49.194Z,101050.69
2023-05-22T13:04:19.248Z,101060.22
2023-05-22T13:06:49.593Z,101058.78
2023-05-22T13:09:20.154Z,101054.34
2023-05-22T13:11:50.631Z,101060.63
2023-05-22T13:14:27.466Z,101065.28
2023-05-22T13:16:57.902Z,101059.50
2023-05-22T13:19:28.212Z,101072.56
2023-05-22T13:21:58.752Z,101058.28
2023-05-22T13:24:28.750Z,101062.56
2023-05-22T13:26:59.138Z,101060.78
2023-05-22T13:29:29.129Z,101053.75
2023-05-22T13:31:59.527Z,101056.06
2023-05-22T13:34:30.305Z,101056.41
2023-05-22T13:37:00.918Z,101053.63
2023-05-22T13:39:31.515Z,101037.72
2023-05-22T13:42:01.879Z,101036.97
2023-05-22T13:44:32.248Z,101037.78
2023-05-22T13:47:02.286Z,101030.81
2023-05-22T13:49:32.751Z,101027.06
2023-05-22T13:52:02.875Z,101027.91
2023-05-22T13:54:33.279Z,101031.81
2023-05-22T13:57:03.734Z,101026.25
2023-05-22T13:59:34.371Z,101021.50
2023-05-22T14:02:04.443Z,101017.41
2023-05-22T14:04:35.962Z,101007.94
2023-05-22T14:07:06.147Z,101006.16
2023-05-22T14:09:37.197Z,101006.16
2023-05-22T14:12:07.458Z,101002.19
2023-05-22T14:14:37.846Z,100999.47
2023-05-22T14:17:10.132Z,101012.44
2023-05-22T14:19:41.087Z,101009.69
2023-05-22T14:22:11.122Z,101002.91
2023-05-22T14:24:41.487Z,101002.13
2023-05-22T14:27:11.281Z,100998.94
2023-05-22T14:29:41.828Z,100995.53
2023-05-22T14:32:11.862Z,100998.47
2023-05-22T14:34:42.500Z,101008.84
2023-05-22T14:37:12.526Z,101003.44
2023-05-22T14:39:42.925Z,101007.03
2023-05-22T14:42:12.937Z,101019.19
2023-05-22T14:44:43.376Z,101018.75
2023-05-22T14:47:13.751Z,101017.84
2023-05-22T14:49:44.126Z,101014.84
2023-05-22T14:52:14.761Z,101014.03
2023-05-22T14:54:45.140Z,101011.88
2023-05-22T14:57:15.601Z,101010.44
2023-05-22T14:59:46.027Z,101012.50
2023-05-22T15:02:16.335Z,101012.72
2023-05-22T15:04:47.424Z,101005.31
2023-05-22T15:07:17.437Z,101002.00
2023-05-22T15:09:47.852Z,100997.97
2023-05-22T15:12:17.870Z,101003.34
2023-05-22T15:14:48.245Z,100993.78
2023-05-22T15:17:18.316Z,100996.63
2023-05-22T15:19:49.919Z,100988.78
2023-05-22T15:22:20.235Z,100982.50
2023-05-22T15:25:03.840Z,100982.16
2023-05-22T15:27:36.234Z,100983.03
2023-05-22T15:30:07.886Z,100986.56
2023-05-22T15:32:38.680Z,100987.34
2023-05-22T15:35:10.366Z,100990.16
2023-05-22T15:37:40.574Z,100988.22
2023-05-22T15:40:12.380Z,100980.72
2023-05-22T15:42:42.365Z,100966.88
2023-05-22T15:45:12.875Z,100960.66
2023-05-22T15:47:43.988Z,100958.88
2023-05-22T15:50:14.354Z,100957.28
2023-05-22T15:52:44.344Z,100946.75
2023-05-22T15:55:14.692Z,100933.38
2023-05-22T15:57:44.487Z,100935.91
2023-05-22T16:00:17.036Z,100941.81
2023-05-22T16:02:48.497Z,100927.34
2023-05-22T16:05:18.936Z,100920.22
2023-05-22T16:07:48.947Z,100911.38
2023-05-22T16:10:19.906Z,100907.81
2023-05-22T16:12:49.894Z,100903.66
2023-05-22T16:15:20.340Z,100899.44
2023-05-22T16:17:50.488Z,100890.97
2023-05-22T16:20:22.503Z,100889.75
2023-05-22T16:22:53.060Z,100891.00
2023-05-22T16:25:23.908Z,100894.84
2023-05-22T16:27:54.023Z,100889.84
2023-05-22T16:30:23.894Z,100893.34
2023-05-22T16:32:54.292Z,100897.97
2023-05-22T16:35:24.671Z,100902.28
2023-05-22T16:37:55.331Z,100904.75
2023-05-22T16:40:25.227Z,100915.13
2023-05-22T16:42:55.640Z,100914.63
2023-05-22T16:45:25.747Z,100915.81
2023-05-22T16:47:56.328Z,100918.22
2023-05-22T16:50:26.391Z,100916.94
2023-05-22T16:52:56.819Z,100916.09
2023-05-22T16:55:26.817Z,100906.69
2023-05-22T16:57:57.179Z,100907.78
2023-05-22T17:00:27.179Z,100902.13
2023-05-22T17:02:57.744Z,100891.63
2023-05-22T17:05:28.653Z,100892.88
2023-05-22T17:07:59.082Z,100909.13
2023-05-22T17:10:29.723Z,100915.34
2023-05-22T17:13:00.251Z,100909.84
2023-05-22T17:15:30.281Z,100904.22
2023-05-22T17:18:00.764Z,100911.47
2023-05-22T17:20:30.884Z,100897.63
2023-05-22T17:23:01.321Z,100895.63
2023-05-22T17:25:31.497Z,100881.78
2023-05-22T17:28:01.910Z,100866.72
2023-05-22T17:30:31.938Z,100862.13
2023-05-22T17:33:04.657Z,100861.34
2023-05-22T17:35:34.172Z,100851.75
2023-05-22T17:38:04.577Z,100863.19
2023-05-22T17:40:43.817Z,100858.31
2023-05-22T17:43:15.906Z,100842.69
2023-05-22T17:45:50.719Z,100837.75
2023-05-22T17:48:24.697Z,100839.53
2023-05-22T17:50:55.134Z,100842.19
2023-05-22T17:53:25.579Z,100852.91
2023-05-22T17:55:55.594Z,100856.16
2023-05-22T17:58:26.198Z,100854.09
2023-05-22T18:00:56.022Z,100847.53
2023-05-22T18:03:27.402Z,100843.88
2023-05-22T18:05:57.454Z,100838.44
2023-05-22T18:08:27.860Z,100828.13
2023-05-22T18:10:59.265Z,100814.00
2023-05-22T18:13:29.648Z,100810.03
2023-05-22T18:16:00.658Z,100810.19
2023-05-22T18:18:31.105Z,100818.25
2023-05-22T18:21:01.173Z,100812.38
2023-05-22T18:23:31.832Z,100817.75
2023-05-22T18:26:02.258Z,100809.31
2023-05-22T18:28:32.788Z,100810.03
2023-05-22T18:31:05.187Z,100814.53
2023-05-22T18:33:35.692Z,100821.41
2023-05-22T18:36:06.548Z,100816.16
2023-05-22T18:38:36.563Z,100810.19
2023-05-22T18:41:08.327Z,100811.63
2023-05-22T18:43:38.384Z,100807.34
2023-05-22T18:46:08.189Z,100811.81
2023-05-22T18:48:38.646Z,100815.88
2023-05-22T18:51:08.565Z,100814.41
2023-05-22T18:53:38.982Z,100814.88
2023-05-22T18:56:08.948Z,100820.00
2023-05-22T18:58:42.578Z,100815.28
2023-05-22T19:01:12.659Z,100819.44
2023-05-22T19:03:43.099Z,100808.56
2023-05-22T19:06:13.936Z,100813.69
2023-05-22T19:08:44.413Z,100818.50
2023-05-22T19:11:14.174Z,100817.03
2023-05-22T19:13:45.881Z,100821.38
2023-05-22T19:16:16.457Z,100809.53
2023-05-22T19:18:47.246Z,100811.75
2023-05-22T19:21:17.228Z,100802.81
2023-05-22T19:23:48.239Z,100802.84
2023-05-22T19:26:18.271Z,100797.53
2023-05-22T19:28:48.711Z,100802.84
2023-05-22T19:31:18.740Z,100805.22
2023-05-22T19:33:49.278Z,100811.69
2023-05-22T19:36:19.361Z,100796.00
2023-05-22T19:38:51.815Z,100802.22
2023-05-22T19:41:24.018Z,100799.16
2023-05-22T19:43:54.462Z,100801.25
2023-05-22T19:46:24.302Z,100803.72
2023-05-22T19:48:54.997Z,100810.38
2023-05-22T19:51:24.988Z,100806.09
2023-05-22T19:53:55.373Z,100809.09
2023-05-22T19:56:25.329Z,100813.13
2023-05-22T19:58:55.762Z,100816.84
2023-05-22T20:01:25.839Z,100819.94
2023-05-22T20:03:57.105Z,100826.88
2023-05-22T20:06:31.319Z,100824.72
2023-05-22T20:09:06.960Z,100816.66
2023-05-22T20:11:37.576Z,100825.50
2023-05-22T20:14:08.817Z,100840.69
2023-05-22T20:16:38.905Z,100835.56
2023-05-22T20:19:10.267Z,100829.47
2023-05-22T20:21:40.435Z,100836.44
2023-05-22T20:24:18.558Z,100844.13
2023-05-22T20:26:49.282Z,100840.41
2023-05-22T20:29:19.965Z,100841.66
2023-05-22T20:31:50.202Z,100841.53
2023-05-22T20:34:21.713Z,100845.28
2023-05-22T20:36:51.660Z,100854.59
2023-05-22T20:39:23.564Z,100858.00
2023-05-22T20:41:54.122Z,100853.91
2023-05-22T20:44:25.771Z,100848.25
2023-05-22T20:46:55.773Z,100860.47
2023-05-22T20:49:27.186Z,100857.38
2023-05-22T20:51:57.320Z,100865.81
2023-05-22T20:54:27.866Z,100862.75
2023-05-22T20:56:58.160Z,100868.81
2023-05-22T20:59:30.081Z,100874.69
2023-05-22T21:02:00.191Z,100861.47
2023-05-22T21:04:30.657Z,100859.50
2023-05-22T21:07:00.653Z,100864.19
2023-05-22T21:09:31.046Z,100853.97
2023-05-22T21:12:01.032Z,100851.72
2023-05-22T21:14:31.539Z,100855.56
2023-05-22T21:17:01.600Z,100855.31
2023-05-22T21:19:32.256Z,100868.88
2023-05-22T21:22:02.253Z,100864.44
2023-05-22T21:24:33.790Z,100869.38
2023-05-22T21:27:03.744Z,100879.13
2023-05-22T21:29:34.190Z,100884.91
2023-05-22T21:32:04.206Z,100878.81
2023-05-22T21:34:34.624Z,100882.13
2023-05-22T21:37:05.148Z,100889.75
2023-05-22T21:39:35.102Z,100889.94
2023-05-22T21:42:05.740Z,100889.75
2023-05-22T21:44:35.702Z,100897.53
2023-05-22T21:47:06.297Z,100897.53
2023-05-22T21:49:38.745Z,100903.00
2023-05-22T21:52:09.933Z,100900.59
2023-05-22T21:54:40.633Z,100905.28
2023-05-22T21:57:11.153Z,100904.50
2023-05-22T21:59:41.325Z,100908.00
2023-05-22T22:02:11.868Z,100915.75
2023-05-22T22:04:41.874Z,100917.28
2023-05-22T22:07:11.871Z,100921.09
2023-05-22T22:09:42.223Z,100929.22
2023-05-22T22:12:12.202Z,100932.09
2023-05-22T22:14:42.610Z,100934.09
2023-05-22T22:17:12.556Z,100933.44
2023-05-22T22:19:43.043Z,100929.03
2023-05-22T22:22:13.614Z,100928.84
2023-05-22T22:24:44.508Z,100937.56
2023-05-22T22:27:15.377Z,100943.41
2023-05-22T22:29:45.927Z,100935.16
2023-05-22T22:32:15.969Z,100941.97
2023-05-22T22:34:46.580Z,100951.69
2023-05-22T22:37:16.674Z,100956.88
2023-05-22T22:39:47.220Z,100958.50
2023-05-22T22:42:17.252Z,100960.75
2023-05-22T22:44:47.751Z,100957.53
2023-05-22T22:47:18.941Z,100965.59
2023-05-22T22:49:51.252Z,100971.28
2023-05-22T22:52:21.465Z,100969.31
2023-05-22T22:54:52.045Z,100967.91
2023-05-22T22:57:22.082Z,100972.50
2023-05-22T22:59:52.629Z,100979.66
2023-05-22T23:02:23.008Z,100982.00
2023-05-22T23:04:57.002Z,100981.13
2023-05-22T23:07:27.415Z,100983.44
2023-05-22T23:09:58.182Z,100986.41
2023-05-22T23:12:29.012Z,100993.16
2023-05-22T23:14:59.304Z,100994.25
2023-05-22T23:17:30.372Z,100995.53
2023-05-22T23:20:00.983Z,100997.91
2023-05-22T23:22:32.225Z,100986.59
2023-05-22T23:25:02.946Z,100995.31
2023-05-22T23:27:33.594Z,100995.97
2023-05-22T23:30:07.576Z,100997.03
2023-05-22T23:32:38.925Z,101001.09
2023-05-22T23:35:10.985Z,101006.06
2023-05-22T23:37:41.022Z,101007.00
2023-05-22T23:40:11.503Z,100995.53
2023-05-22T23:42:42.502Z,100999.34
2023-05-22T23:45:13.619Z,101003.88
2023-05-22T23:47:44.426Z,101009.50
2023-05-22T23:50:14.866Z,101007.19
2023-05-22T23:52:45.383Z,100999.00
2023-05-22T23:55:16.235Z,100998.59
2023-05-22T23:57:48.102Z,100997.34
